Boscobel, Wisconsin
Current Conditions -  °F | °C
As of 8:53 AM on Saturday 20 Dec 2014 (Local Time) from KOVS Reporting Station
Haze Haze  
Wind Chill: 30°   Ceiling: 2000
Heat Index: 30°   Visibility: 6mi
Dew Point: 25°   Wind: 0mph
Humidity: 82%   Direction: NA
Pressure: 30.25"   Gusts: NA
Location:  43.13°N, 90.71°W
Report Text: KOVS 201453Z AUTO 00000KT 6SM HZ BKN020 OVC025 M01/M04 A3025 RMK AO2 SLP253 T10111039 53001
Loading
Personal Weather Stations






























Interactive Weather Map New forecast layout! Learn more

10-Day Weather Forecast

Advertisements
Track Severe Weather on mobile